M.y.skat — ZCGS3 — position and weather

sailwx.info

Track history (hours):
 
Tides and Currents Weather Stations Pressure Air Temp Water Temp Dewpoint Dewpoint Depression Visibility Wind Speed Wind Dir Waves Ship Positions

M.y.skat

Last reported at 2018-Feb-17 05:48 UTC. Time now 2018-Feb-18 04:54 UTC.
Position N 16°33' W 062°07'.

Length 70 m; draft 3.7 m.

Type: Pleasure craft. MMSI: 319741000.

Date/timePositionNaut miles runAvg speedWind from/ knotsBaromVisibWave heightAir tempDewpointWater temp
2018-Feb-17 05:48N 16°33' W 062°07'311.1
2018-Feb-17 05:30N 16°35' W 062°09'1212.0
2018-Feb-17 04:33N 16°44' W 062°17'113.7
2018-Feb-17 04:30N 16°45' W 062°17'610.8
2018-Feb-17 03:59N 16°49' W 062°13'0 0.1
2018-Feb-17 03:25N 16°49' W 062°13'0 0.0
2018-Feb-17 02:46N 16°49' W 062°13'0 0.0
2018-Feb-17 02:28N 16°49' W 062°13'0 0.0
2018-Feb-17 01:46N 16°49' W 062°13'0 0.0
2018-Feb-17 01:25N 16°49' W 062°13'0 0.0
2018-Feb-17 00:58N 16°49' W 062°13'0 0.0
2018-Feb-17 00:13N 16°49' W 062°13'0 0.0
2018-Feb-16 12:03N 16°49' W 062°13'0 0.2
2018-Feb-16 11:57N 16°49' W 062°13'4 7.7
2018-Feb-16 11:28N 16°50' W 062°16'71 2.9
2018-Feb-15 11:13N 17°35' W 063°13'412.0
2018-Feb-15 10:55N 17°33' W 063°10'1412.3
2018-Feb-15 09:49N 17°24' W 062°59'22 0.9
2018-Feb-14 09:11N 17°09' W 062°42'514.5
2018-Feb-14 08:52N 17°05' W 062°41'2214.1
2018-Feb-14 07:17N 16°48' W 062°25'312.2
2018-Feb-14 07:00N 16°46' W 062°23'712.0
2018-Feb-14 06:26N 16°41' W 062°18'512.1
2018-Feb-14 06:00N 16°37' W 062°14'612.2
2018-Feb-14 05:30N 16°33' W 062°09'612.1
2018-Feb-14 05:00N 16°29' W 062°04'510.0
2018-Feb-14 04:30N 16°25' W 062°01'510.0
2018-Feb-14 04:00N 16°22' W 061°57'510.2
2018-Feb-14 03:30N 16°18' W 061°53'1110.0
2018-Feb-14 02:25N 16°08' W 061°48'1 0.1
2018-Feb-13 14:32N 16°08' W 061°47'0 9.7
2018-Feb-13 14:30N 16°08' W 061°48'  
Track history (hours):
 
Tides and Currents Weather Stations Pressure Air Temp Water Temp Dewpoint Dewpoint Depression Visibility Wind Speed Wind Dir Waves Ship Positions

M.y.skat

Last reported at 2018-Feb-17 05:48 UTC. Time now 2018-Feb-18 04:54 UTC.
Position N 16°33' W 062°07'.

Length 70 m; draft 3.7 m.

Type: Pleasure craft. MMSI: 319741000.

Date/timePositionNaut miles runAvg speedWind from/ knotsBaromVisibWave heightAir tempDewpointWater temp
2018-Feb-17 05:48N 16°33' W 062°07'311.1
2018-Feb-17 05:30N 16°35' W 062°09'1212.0
2018-Feb-17 04:33N 16°44' W 062°17'113.7
2018-Feb-17 04:30N 16°45' W 062°17'610.8
2018-Feb-17 03:59N 16°49' W 062°13'0 0.1
2018-Feb-17 03:25N 16°49' W 062°13'0 0.0
2018-Feb-17 02:46N 16°49' W 062°13'0 0.0
2018-Feb-17 02:28N 16°49' W 062°13'0 0.0
2018-Feb-17 01:46N 16°49' W 062°13'0 0.0
2018-Feb-17 01:25N 16°49' W 062°13'0 0.0
2018-Feb-17 00:58N 16°49' W 062°13'0 0.0
2018-Feb-17 00:13N 16°49' W 062°13'0 0.0
2018-Feb-16 12:03N 16°49' W 062°13'0 0.2
2018-Feb-16 11:57N 16°49' W 062°13'4 7.7
2018-Feb-16 11:28N 16°50' W 062°16'71 2.9
2018-Feb-15 11:13N 17°35' W 063°13'412.0
2018-Feb-15 10:55N 17°33' W 063°10'1412.3
2018-Feb-15 09:49N 17°24' W 062°59'22 0.9
2018-Feb-14 09:11N 17°09' W 062°42'514.5
2018-Feb-14 08:52N 17°05' W 062°41'2214.1
2018-Feb-14 07:17N 16°48' W 062°25'312.2
2018-Feb-14 07:00N 16°46' W 062°23'712.0
2018-Feb-14 06:26N 16°41' W 062°18'512.1
2018-Feb-14 06:00N 16°37' W 062°14'612.2
2018-Feb-14 05:30N 16°33' W 062°09'612.1
2018-Feb-14 05:00N 16°29' W 062°04'510.0
2018-Feb-14 04:30N 16°25' W 062°01'510.0
2018-Feb-14 04:00N 16°22' W 061°57'510.2
2018-Feb-14 03:30N 16°18' W 061°53'1110.0
2018-Feb-14 02:25N 16°08' W 061°48'1 0.1
2018-Feb-13 14:32N 16°08' W 061°47'0 9.7
2018-Feb-13 14:30N 16°08' W 061°48'  

Dump ship's entire track history